White Oak, Georgia
Current Conditions -  °F | °C
As of 7:15 PM on Tuesday 25 Nov 2014 (Local Time) from KBQK Reporting Station
Overcast Overcast  
Wind Chill: 61°   Ceiling: 400
Heat Index: 61°   Visibility: 10mi
Dew Point: 59°   Wind: 3mph
Humidity: 94%   Direction: 20°NNE
Pressure: 29.97"   Gusts: NA
Location:  31.03°N, 81.73°W
Report Text: KBQK 260015Z AUTO 02003KT 10SM BKN004 BKN012 OVC039 16/15 A2997 RMK AO1 LTG DSNT SE
Loading
Personal Weather Stations






























Interactive Weather Map New forecast layout! Learn more

10-Day Weather Forecast

Advertisements
Track Severe Weather on mobile